BTape's sites:

title views votes rating creation
?fad 1,733 32 (3.53)  2010-06-06
?Hermey really doesn't like to make toys 10,663 214 (3.80)  2007-12-28
?homUffculus 6,662 163 (3.32)  2007-11-22
?Milla's Booth is Popular 12,012 236 (3.58)  2007-08-20
?Tom Arnold Lost His Way in the Peruvian Jungle 7,165 230 (3.82)  2007-08-15
?Hum(?x)n 6,303 165 (3.73)  2007-08-08
?happy return 3,015 131 (3.19)  2007-07-09
?PrintScrn 38,388 766 (3.89)  2007-06-29
?Ron Stewart releases the YTMND Flash Roddie-Lo... 4,852 195 (3.75)  2007-06-27
?UNICORx© (Ask your doctor) 5,380 144 (3.61)  2007-06-26
?The Power of Lightning at your Fingertips! 15,102 508 (3.95)  2007-06-18
?How Outback grills their steaks to perfection 5,523 185 (3.18)  2007-06-15
?These are my ACMES! 11,567 329 (4.02)  2007-06-14
?Arnold loves the iPhone's new features 9,868 288 (3.73)  2007-06-11
?Female Cosby on rocketfrancais 1,616 55 (3.82)  2007-06-11
?Special Edition™ 3,314 100 (3.59)  2007-05-30
?Scarlett Flavored Hotty Juice 2,286 68 (3.81)  2007-05-29
?Jed makes Jed dig a hole to find the buried issue of ... 53,239 729 (3.00)  2007-05-25
?Nicolas Cage is persistant 12,364 309 (4.04)  2007-05-21
?Fruit Killer Jack's Assault on Pear 2,586 78 (3.68)  2007-05-16
?How's the pie? 19,584 413 (4.05)  2007-05-09
?Cosby, Über Ninja Turtle 24,869 489 (4.24)  2007-05-05
?cosbydowners 31,290 725 (3.66)  2007-05-02
?True Journey of a YTMND 15,764 404 (3.94)  2007-04-30
?Come D'oh With Me! 10,762 344 (3.88)  2007-04-29
?! Eyeing Breakfast 3,381 136 (3.74)  2007-04-25
?HEY HEY YOU YOU! 14,218 225 (4.01)  2007-04-23
?Dr. McCainlove or: How I Learned to Stop Worryin... 10,299 335 (4.06)  2007-04-20
?Nacho Monk#?!y 2,032 74 (3.82)  2007-04-17
?P1ZZ4 C04ST3R 10,092 251 (3.84)  2007-04-08
?CONTEST: Jed Light District 1,400 43 (3.91)  2007-04-08
?ChArinold's forgot hNOOOOOs (VOTE 5 P... 927 74 (3.86)  2007-04-07
?300TMND: CONAN IS... NOT A FEATURE, ... 4,602 225 (3.90)  2007-04-06
?GU3SS WH0'S B4CK 18,441 426 (3.96)  2007-04-03
?TCBCR Raiding 4,436 180 (3.84)  2007-04-03
?NOOOller Coaster: Special Edition (fun times mix) 1,583 52 (3.81)  2007-04-03
?S3CR3T P1ZZ4 M4N 15,654 463 (4.17)  2007-04-01
?Banana Bride 8,146 235 (3.68)  2007-03-31
?Aquelairone 1,023 69 (3.90)  2007-03-31
?(nsfw) FORGOTMND: BUWSH AND CARIE (VO... 1,564 78 (3.91)  2007-03-25
?KANE ROBOT MAKES HIS X91TH COMPUTATI... 1,468 79 (3.80)  2007-03-23
?A LITERAL REPRESENTATION OF YOUR DIGIT... 1,994 114 (3.75)  2007-03-23
?TWINKYTTD~ HE WANTS TO EAT TWINKICY... 2,208 66 (3.85)  2007-03-23
?One Day When You Least Expect It 11,643 370 (4.39)  2007-03-22
?Captain Miller's Lollipop Woes 14,020 404 (4.32)  2007-03-18
?Silence of the Loompas 18,456 467 (4.32)  2007-03-16
?(nsfw) Ghorge Lohan DOESNT care about changin... 4,708 69 (3.91)  2007-03-13
?Fyrestorm is Neo 1,705 82 (3.74)  2007-03-12
?It's YTMND 4,083 185 (3.69)  2007-03-12
?Peter Mourns Uncle Ben's Passing 11,176 356 (4.30)  2007-03-12
?Who Put The Jed? 1,248 48 (3.73)  2007-03-11
?(nsfw) Forgetting Poland: VOTE5 in 30 Frames 3,871 233 (3.85)  2007-03-09
?(nsfw) Beans & Forbreadgot 4,929 105 (3.48)  2007-03-09
?BAAAAAng BAAAAAng On The Door BAAA... 9,649 226 (3.49)  2007-03-07
?Epic Syncan Ree Maneuver Rave 3,665 98 (3.88)  2007-03-06
?Dueling Lennies 17,104 351 (4.00)  2007-03-05
?Dennal Plananza 13,226 372 (4.09)  2007-03-04
?Searching for Bubb Rubb Fischer 8,528 248 (3.79)  2007-03-03
?What You See When You Don't Double Ba... 11,471 391 (4.00)  2007-03-02
?H1S P1ZZ4 L1V3S 0N... 15,350 447 (4.22)  2007-02-22
?P1ZZ4 GUY C4N'T ST0P TH3 P1ZZ4 11,279 378 (4.10)  2007-02-20
?C4N'T BR34K P1ZZ4 GUY'S STR1D... 15,081 439 (4.19)  2007-02-19
?P1ZZ4 P13 P4YB4CK PL4N 19,565 386 (4.24)  2007-02-18
?ARTMND: Classical Renaissance Wizard 1,885 118 (3.94)  2007-02-18
?P1ZZ4 GUY G3T5 D0WN 61,979 921 (4.26)  2007-02-16
?Dax Punk: MOMMMM!!! (Remastered) 26,303 408 (3.98)  2007-02-16
?Westley's Secret 14,950 652 (4.48)  2007-02-15
?Mola Ram's Temple of Love 13,539 361 (4.30)  2007-02-13
?Jed on a Mule in Space 9,995 202 (3.37)  2007-02-11
?Dennis Bergkamp Belts Out a Ball Melter 2,461 85 (3.85)  2007-02-11
?KOENTMND: MATLABspace Compilercide 4,499 185 (4.23)  2007-02-09
?Get Off My YTMND 1,450 103 (3.99)  2007-02-08
?We Didn't Start This Jed-Compilation! (glitche... 1,738 96 (3.93)  2007-02-06
?Oh! Ho! Ho! It's McFly! 23,331 568 (4.32)  2007-02-04
?Daft Jitz ft. McFly 5,145 190 (3.96)  2007-02-04
?The End of McFly 2,905 146 (3.89)  2007-02-03
?Ye Olde Tavern's New Talent 1,177 57 (3.86)  2007-02-02
?(nsfw) Did you notice a sign outside my house? 3,482 97 (4.01)  2007-02-02
?MAI MASHEENZ IN THE FUTURE! 4,578 127 (3.72)  2007-01-31
?LOL, MAI MASHEENZ 1,797 69 (3.84)  2007-01-31
?(nsfw) Cpt. Kirkbush Duglass Forgots Polendaes! (... 1,965 115 (3.83)  2007-01-31
?KOENTMND: Did you notice a sign outside my hou... 3,804 157 (3.89)  2007-01-30
?HNOOOOmer Forgots a Polend by 30 Seconds Mi... 3,899 194 (3.84)  2007-01-26
?KOENTMND: Matlab Bonanza 6,368 124 (4.02)  2007-01-25
?KOENTMND: Dr. Billy V. KHAN 16,128 291 (3.26)  2007-01-25
?The PirAAAAAAAnha Plants take over! 7,673 344 (4.00)  2007-01-25
?BUSHZIE SEES HIS FUTURE ......And it's ... 2,262 109 (3.84)  2007-01-25
?KHANTMND: It's Not KHANusual 2,460 122 (3.84)  2007-01-24
?Ray Liotta gets busted at the stop light and freaks o... 13,134 315 (3.28)  2007-01-23
?Face to Face with Salt 3,706 138 (3.80)  2007-01-23
?404 Beautiful House Not Found 2,890 92 (3.80)  2007-01-23
?Jeds Watch Puppet Show 1,860 79 (3.86)  2007-01-23
?Clocktower Chills! 10,936 440 (3.93)  2007-01-19
?MacGyver vs. PC 2,380 142 (3.63)  2007-01-19
?(nsfw) fuckfish is trapped 3,576 173 (3.83)  2007-01-17
?Dirty Dealings! 8,368 286 (3.82)  2007-01-17
?Who Put The Wrong? 12,385 462 (4.02)  2007-01-15
?KHANTMND: Girls Just Wanna Have Khan 2,777 159 (3.88)  2007-01-15
?Lex Luthor > WOOOOOOOOOO 2,858 134 (3.92)  2007-01-15
?JED BONANZA! 1,797 70 (3.64)  2007-01-14
?(nsfw) BIPFT: The Aftermath 40,126 705 (4.48)  2007-01-12
?(nsfw) But I Pope From There 6,901 98 (3.72)  2007-01-12
?Lex Luthor = church choir 44,923 873 (4.44)  2007-01-10
?(nsfw) But I Forgot Poland From There! 2,549 107 (3.93)  2007-01-10
?D0N'T DR34M 1T 12,981 272 (3.83)  2007-01-09
?Jed sees a burning brush like in the bible 1,217 57 (3.65)  2007-01-09
?Jed Brushes Teeth 1,220 46 (3.65)  2007-01-09
?(nsfw) P1ZZ4 GUY G0N' G1V3 1T T0 Y4 30,226 578 (4.26)  2007-01-07
?F.B.I. 10,037 337 (3.99)  2007-01-07
?R3TURN 0F TH3 P1ZZ4 GUY 9,639 159 (4.16)  2007-01-07
?WH4T 1S P1ZZ4? 8,715 150 (4.03)  2007-01-07
?WH3R3 1S MY P1ZZ4? 9,631 135 (3.95)  2007-01-07
?TH4T P1ZZ4 1S F0R D1SPL4Y PURP0S3S 0NLY... 19,665 204 (4.24)  2007-01-07
?Chunk Addresses Congress 50,328 912 (4.61)  2007-01-07
?(nsfw) But I Poop From There 799,183 1,889 (4.49)  2007-01-07
?Ray Liotta Visits The Jed Lounge (Hit F11) 2,178 107 (3.72)  2007-01-04
?P is For(got) Poland (VOTE % PLZ) 7,379 172 (3.85)  2007-01-02
?It's Too Bad She Won't Live... 19,078 396 (3.67)  2007-01-01
?Mortal Kombat: Kirk vs. Gorn 25,709 514 (4.28)  2006-12-31
?(nsfw) How to Oily *ss F*ck a Telemarketer (pleas... 13,515 325 (2.90)  2006-12-28
?Almost There... 19,225 526 (4.31)  2006-12-25
?Forgotten Polish Christmas Carol (VOTE 5) 8,285 328 (3.52)  2006-12-24
?Bill O'Reilly Attacks Rosie O'Donnell 9,984 209 (3.79)  2006-12-23
?I got Lost and all they gave me was this stupid Fish ... 2,483 71 (3.66)  2006-12-23
?The Jeds Dwell On Life (Classy) 2,094 81 (3.91)  2006-12-20
?HIJACKED BY FUTURE KONANE 15,923 386 (3.47)  2006-12-18
?WHAT HAVE YOU DONE? 1,757 104 (3.57)  2006-12-14
?Did you notice a sign outside my house? 3,500 126 (3.61)  2006-12-14
?(nsfw) Red and White Poland Machine (VOTE 5) 119,360 2,387 (2.99)  2006-12-11
?(nsfw) Verizon Fails at Polish Mathematics (30sec) 3,638 91 (3.88)  2006-12-09
?(nsfw) The Inevitable Return of the Great White Po... 3,893 79 (3.81)  2006-12-01
?(nsfw) Pope Kassius has the Triforce 3,631 95 (3.62)  2006-11-25
?Forgot Poland - The Soundtrack (*VOLUME THIRT... 6,853 256 (4.00)  2006-11-09
?KHANTMND: KHAN knows the code (Updated) 5,496 174 (4.10)  2006-10-26
?Always Something There to Remind Me (VOTE 5) 8,023 283 (4.09)  2006-10-25
?(nsfw) KHANTMND: KHAN works it 1,931 65 (3.83)  2006-10-25
?A kitten ate my keyboard! 6,315 101 (3.83)  2006-10-17
?KHANTMND: A-Ha KHAN 6,093 171 (4.13)  2006-10-16
?KHANTMND: Kirk loves KHANbell peppers! 1,952 100 (3.94)  2006-10-16
?(nsfw) Poland vs. Cherry 5,987 221 (3.79)  2006-10-08
?KHANTMND: KHANbot Rock! 6,069 163 (4.06)  2006-10-08
?BAH da BAH BAH BAH, I'm Lovin&#0... 32,251 821 (4.16)  2006-09-17
?(nsfw) Poland in the Moonlight 2,505 109 (3.98)  2006-09-12
?(nsfw) DEW!!!!!N'T FORGET POLAND! 4,180 158 (4.04)  2006-09-12
?Khanaway Poland 7,193 353 (3.53)  2006-09-10
?Poland has you... 23,394 751 (3.96)  2006-09-05
?YOU ARE NOT MY FATHER!!! (extended edition) 5,853 229 (3.94)  2006-09-01
?(nsfw) Bush Falls. Poland Catches. 9,142 303 (3.76)  2006-08-30
?(nsfw) Kerry Mcfly Forgot Bush's Polend 4,498 155 (3.96)  2006-08-27
?(nsfw) Polend Avenue 2,606 129 (3.96)  2006-08-27
?Relax, don't do it. Miss Poland 2006 6,101 314 (3.87)  2006-08-14
?Poland Puppet! 7,534 314 (4.03)  2006-08-05
?BTape's continuous test site 2,670 110 (4.24)  2006-08-01
?I Can't Spell YTMND 5,337 251 (3.95)  2006-07-21
?(nsfw) A MESSAGE FROM BUSH POLAND VO... 2,428 102 (3.78)  2006-07-16
?Lex > Zidane 9,033 179 (3.89)  2006-07-12
?(nsfw) The Poles Attack Materazzi 5,796 121 (3.94)  2006-07-12
?(nsfw) red poland does the lol 2,623 173 (3.82)  2006-07-12
?YTMND Charades! #2 3,426 86 (3.93)  2006-07-05
?Colbert Maxes Out 29,670 609 (4.05)  2006-07-01
?The True Exciting Eon8 Jed End 2,397 71 (3.86)  2006-06-30
?(nsfw) SHOE ON HEAD FORGOT POLAND AN... 6,009 144 (3.88)  2006-06-22
?Your optical illusion has one weakness... 4,070 102 (3.89)  2006-06-20
?Xenu Attempts Escape 22,009 664 (4.24)  2006-06-13
?NEDM is Unstoppable 5,314 248 (3.34)  2006-05-13
?You're Being Watched 1,617 87 (3.97)  2006-05-07
?blackguard 1,596 77 (3.83)  2006-04-29
?charlatan 2,180 68 (3.75)  2006-04-29
?Data Attempts Epic Maneuver 13,336 162 (3.96)  2006-04-16
?Red Ranger Getaway 10,379 138 (4.00)  2006-04-16
?Hypno-Hands Pets Kitten 6,950 210 (4.07)  2006-04-05
?☺╚╬╩♥╬╩╗☻... 3,511 187 (3.99)  2006-04-03
?Chasing Insulin 11,766 571 (4.21)  2006-04-01
?Hypno-Hands Tells Fortunes 1,648 123 (4.02)  2006-04-01
?Doodlepad Arcades 902 124 (3.94)  2006-03-31
?{{([|*****|])}} 1,264 126 (3.76)  2006-03-31
?Doodlepad Experience 877 123 (3.96)  2006-03-31
?Office Whiteboards 4,399 130 (3.89)  2006-03-31
?Tour De Rompre 1,397 114 (3.87)  2006-03-31
?(nsfw) The Doodlepad Experience 1,738 120 (3.85)  2006-03-31
?Hypno-Hands Strikes Again 4,401 342 (3.97)  2006-03-31
?Ninjas Beyond Fads 2,077 131 (3.98)  2006-03-31
?Hypno-Hands Watches Family Christmas Videos 4,750 211 (4.02)  2006-03-28
?Peter Griffin Goes To An Arcade 22,169 479 (4.09)  2006-03-28
?The Beatles were Suave 5,381 164 (4.01)  2006-03-22
?PTKFGS: Pirates Are So Original 16,928 346 (3.98)  2006-03-17
?Talk About Obsessive Compulsive 10,017 426 (4.00)  2006-03-15
?Phenomena 5,286 233 (4.04)  2006-03-13
?I Saw the Sun! 1,669 115 (3.99)  2006-03-12
?Smartass Pirate 10,760 294 (4.00)  2006-03-10
?Where's Your Bed At? 2,641 141 (3.99)  2006-03-10
?Hey Java! 4,709 140 (3.96)  2006-03-09
?I Want Your Bed 3,739 108 (3.92)  2006-03-09
?Not Gonna Take It 11,573 442 (4.11)  2006-03-09
?You're Just What I Kneaded 6,915 184 (4.02)  2006-03-09
?Time is Running Out 4,007 146 (3.97)  2006-03-09
?It's Under Pressure 2,160 120 (3.95)  2006-03-08
?Ricola! 4,226 157 (3.85)  2006-03-08
?Cold Hard Bitch 11,431 298 (4.01)  2006-03-08
?Ohno! 3,764 140 (3.89)  2006-03-08
?Secret Agent Kramer 5,524 222 (4.01)  2006-03-07
?Everyday is Groundhog Day 5,828 169 (3.99)  2006-03-01
?I met Batman and I got sent to Arkham Asylum (ed... 17,948 297 (4.04)  2006-02-27